Time;durP1;ratioP1;P1;durP2;ratioP2;P2;SDS_P1;SDS_P2;PMS_P1;PMS_P2;Temp;Humidity;BMP_temperature;BMP_pressure;BME280_temperature;BME280_humidity;BME280_pressure;Samples;Min_cycle;Max_cycle;Signal;HPM_P1;HPM_P2
2022/09/09 00:01:32;;;;;;;4.80;1.33;;;;;;;-148.88;89.04;74891.72;5012833;28;20049;-76
2022/09/09 00:04:20;;;;;;;3.85;1.17;;;;;;;-148.88;88.87;74887.66;5011351;28;20033;-76
2022/09/09 00:06:58;;;;;;;5.38;1.50;;;;;;;-148.88;89.07;74899.84;5011313;28;20030;-76
2022/09/09 00:09:28;;;;;;;2.58;1.20;;;;;;;-148.88;89.35;74889.69;5012840;28;20033;-76
2022/09/09 00:12:38;;;;;;;3.60;1.30;;;;;;;-148.88;88.98;74887.66;5012604;28;20030;-76
2022/09/09 00:15:19;;;;;;;3.22;1.30;;;;;;;-148.88;89.13;74889.69;5007745;28;20045;-76
2022/09/09 00:17:47;;;;;;;3.72;1.27;;;;;;;-148.88;89.57;74883.59;5012513;28;20026;-76
2022/09/09 00:20:23;;;;;;;5.90;1.52;;;;;;;-148.88;89.55;74903.91;5012841;28;20408;-76
2022/09/09 00:23:11;;;;;;;4.20;1.17;;;;;;;-148.88;90.03;74901.88;5012871;28;20022;-76
2022/09/09 00:25:49;;;;;;;3.17;1.15;;;;;;;-148.88;90.01;74893.75;5011024;28;20022;-76
2022/09/09 00:28:22;;;;;;;2.38;1.15;;;;;;;-148.88;90.35;74910.00;5011047;28;20054;-76
2022/09/09 00:30:50;;;;;;;4.57;1.60;;;;;;;-148.88;90.61;74912.03;5012405;28;20030;-77
2022/09/09 00:33:22;;;;;;;3.65;1.42;;;;;;;-148.88;90.48;74887.66;5012306;28;20305;-76
2022/09/09 00:35:50;;;;;;;4.00;1.60;;;;;;;-148.88;89.90;74875.47;5012480;28;20026;-76
2022/09/09 00:38:33;;;;;;;3.50;1.23;;;;;;;-148.88;90.39;74875.47;5016716;28;20022;-76
2022/09/09 00:41:10;;;;;;;4.90;1.52;;;;;;;-148.88;90.47;74871.41;5016372;28;20438;-76
2022/09/09 00:43:37;;;;;;;5.43;1.40;;;;;;;-148.88;89.44;74853.13;5016582;28;20057;-76
2022/09/09 00:46:37;;;;;;;4.80;1.60;;;;;;;-148.88;88.97;74847.03;5016334;28;20109;-76
2022/09/09 00:49:21;;;;;;;3.17;1.48;;;;;;;-148.88;88.55;74842.97;5016226;28;20037;-76
2022/09/09 00:52:23;;;;;;;3.17;1.10;;;;;;;-148.88;89.42;74859.22;5016248;28;20025;-76
2022/09/09 00:54:49;;;;;;;3.10;1.20;;;;;;;-148.88;89.21;74851.09;5016115;28;20022;-76
2022/09/09 00:57:32;;;;;;;4.20;1.50;;;;;;;-148.88;88.83;74836.88;5014694;28;20029;-76
2022/09/09 01:00:22;;;;;;;3.47;1.20;;;;;;;-148.88;88.97;74830.78;5016019;28;20034;-76
2022/09/09 01:03:12;;;;;;;3.53;1.50;;;;;;;-148.88;88.75;74826.72;5016020;28;20017;-76
2022/09/09 01:06:16;;;;;;;4.72;1.45;;;;;;;-148.88;88.65;74830.78;5014355;28;20037;-76
2022/09/09 01:09:17;;;;;;;4.18;1.33;;;;;;;-148.88;88.95;74826.72;5006717;28;20042;-76
2022/09/09 01:11:57;;;;;;;2.45;1.10;;;;;;;-148.88;88.71;74824.69;5015727;28;20064;-76
2022/09/09 01:14:32;;;;;;;3.47;1.20;;;;;;;-148.88;89.01;74822.66;5016077;28;20029;-76
2022/09/09 01:17:25;;;;;;;2.88;1.15;;;;;;;-148.88;89.21;74836.88;5014375;28;20192;-76
2022/09/09 01:20:26;;;;;;;4.13;1.27;;;;;;;-148.88;89.89;74828.75;5015711;28;20076;-76
2022/09/09 01:23:11;;;;;;;3.80;1.55;;;;;;;-148.88;89.48;74828.75;5015150;28;20041;-76
2022/09/09 01:26:02;;;;;;;5.05;1.50;;;;;;;-148.88;89.69;74828.75;5014091;28;20350;-76
2022/09/09 01:28:28;;;;;;;3.28;1.42;;;;;;;-148.88;89.61;74816.56;5015328;28;20376;-76
2022/09/09 01:30:55;;;;;;;2.55;1.15;;;;;;;-148.88;89.72;74814.53;5015388;28;20442;-76
2022/09/09 01:33:21;;;;;;;3.08;1.30;;;;;;;-148.88;90.19;74824.69;5015671;28;20116;-76
2022/09/09 01:35:56;;;;;;;5.22;1.52;;;;;;;-148.88;89.91;74822.66;5015483;28;20109;-76
2022/09/09 01:38:24;;;;;;;3.97;1.50;;;;;;;-148.88;90.18;74830.78;5014287;28;20125;-76
2022/09/09 01:40:54;;;;;;;4.70;1.30;;;;;;;-148.88;89.99;74830.78;5015279;28;20036;-76
2022/09/09 01:43:23;;;;;;;2.83;1.20;;;;;;;-148.88;90.03;74830.78;5015292;28;20049;-76
2022/09/09 01:45:52;;;;;;;5.15;1.70;;;;;;;-148.88;89.58;74818.59;5015349;28;20048;-76
2022/09/09 01:48:19;;;;;;;5.88;1.60;;;;;;;-148.88;90.47;74824.69;5012816;28;20125;-76
2022/09/09 01:50:44;;;;;;;3.85;1.17;;;;;;;-148.88;90.10;74818.59;5015251;28;20080;-76
2022/09/09 01:53:11;;;;;;;6.65;1.40;;;;;;;-148.88;90.92;74830.78;5015058;28;20121;-77
2022/09/09 01:55:40;;;;;;;4.43;1.35;;;;;;;-148.88;90.41;74824.69;5014813;28;20026;-76
2022/09/09 01:58:14;;;;;;;3.03;1.15;;;;;;;-148.88;89.90;74828.75;5015029;28;20037;-76
2022/09/09 02:00:50;;;;;;;3.97;1.27;;;;;;;-148.88;90.24;74828.75;5015335;28;20536;-76
2022/09/09 02:03:26;;;;;;;2.72;1.20;;;;;;;-148.88;90.45;74842.97;5015265;28;20028;-76
2022/09/09 02:06:00;;;;;;;3.08;1.45;;;;;;;-148.88;90.62;74845.00;5013379;28;20108;-77
2022/09/09 02:08:25;;;;;;;;;;;;;;;-148.88;91.13;74853.13;5014006;28;20026;-76
2022/09/09 02:11:01;;;;;;;3.50;1.30;;;;;;;-148.88;90.85;74861.25;5014730;28;20076;-76
2022/09/09 02:13:28;;;;;;;3.15;1.40;;;;;;;-148.88;91.44;74867.34;5013251;28;20270;-76
2022/09/09 02:16:00;;;;;;;4.30;1.55;;;;;;;-148.88;91.18;74867.34;5014291;28;20029;-76
2022/09/09 02:18:43;;;;;;;3.92;1.80;;;;;;;-148.88;91.63;74875.47;5014432;28;20058;-76
2022/09/09 02:21:11;;;;;;;3.95;1.40;;;;;;;-148.88;91.41;74871.41;5013121;28;20057;-76
2022/09/09 02:23:39;;;;;;;3.90;1.50;;;;;;;-148.88;91.04;74871.41;5014406;28;20337;-76
2022/09/09 02:26:05;;;;;;;5.97;1.23;;;;;;;-148.88;90.99;74887.66;5014302;28;20018;-76
2022/09/09 02:28:34;;;;;;;3.22;1.10;;;;;;;-148.88;91.17;74881.56;5014787;28;20381;-76
2022/09/09 02:31:00;;;;;;;3.20;1.20;;;;;;;-148.88;90.76;74891.72;5014246;28;20048;-76
2022/09/09 02:33:30;;;;;;;3.55;1.00;;;;;;;-148.88;91.12;74899.84;5014274;28;20033;-76
2022/09/09 02:36:01;;;;;;;3.13;1.05;;;;;;;-148.88;90.99;74893.75;5012597;28;20026;-76
2022/09/09 02:38:29;;;;;;;2.67;1.00;;;;;;;-148.88;90.85;74903.91;5012742;28;20033;-76
2022/09/09 02:40:54;;;;;;;3.10;1.27;;;;;;;-148.88;90.44;74895.78;5014063;28;20025;-77
2022/09/09 02:43:20;;;;;;;2.83;1.00;;;;;;;-148.88;90.44;74891.72;5012682;28;20437;-77
2022/09/09 02:46:14;;;;;;;3.75;1.00;;;;;;;-148.88;90.29;74889.69;5013901;28;20064;-76
2022/09/09 02:48:45;;;;;;;;;;;;;;;-148.88;89.97;74893.75;5014825;28;20179;-76
2022/09/09 02:51:24;;;;;;;2.70;0.95;;;;;;;-148.88;90.09;74893.75;5012614;28;19916;-76
2022/09/09 02:54:10;;;;;;;2.75;0.90;;;;;;;-148.88;89.73;74881.56;5014050;28;20427;-76
2022/09/09 02:56:41;;;;;;;2.25;0.93;;;;;;;-148.88;89.97;74877.50;5012523;28;20113;-76
2022/09/09 02:59:07;;;;;;;1.83;0.90;;;;;;;-148.88;89.90;74871.41;5013722;28;20080;-76
2022/09/09 03:01:32;;;;;;;5.13;0.90;;;;;;;-148.88;89.73;74873.44;5013643;28;20025;-76
2022/09/09 03:03:58;;;;;;;2.70;0.90;;;;;;;-148.88;89.82;74879.53;5013491;28;20080;-76
2022/09/09 03:06:23;;;;;;;3.47;1.02;;;;;;;-148.88;90.03;74879.53;5013473;28;20034;-76
2022/09/09 03:08:49;;;;;;;3.40;1.00;;;;;;;-148.88;90.14;74881.56;5013497;28;20338;-76
2022/09/09 03:11:16;;;;;;;3.25;1.08;;;;;;;-148.88;90.51;74885.63;5013458;28;20076;-76
2022/09/09 03:13:41;;;;;;;2.67;0.90;;;;;;;-148.88;90.71;74887.66;5012165;28;20045;-76
2022/09/09 03:16:06;;;;;;;3.70;1.00;;;;;;;-148.88;90.66;74883.59;5013205;28;20110;-76
2022/09/09 03:18:32;;;;;;;4.13;1.15;;;;;;;-148.88;90.92;74883.59;5012022;28;20050;-76
2022/09/09 03:20:59;;;;;;;2.13;1.05;;;;;;;-148.88;90.23;74875.47;5013515;28;20436;-76
2022/09/09 03:23:24;;;;;;;2.80;1.10;;;;;;;-148.88;90.56;74875.47;5012208;28;20484;-76
2022/09/09 03:25:51;;;;;;;2.65;1.00;;;;;;;-148.88;90.75;74871.41;5013512;28;20033;-76
2022/09/09 03:28:17;;;;;;;4.70;1.73;;;;;;;-148.88;90.89;74875.47;5012000;28;20030;-76
2022/09/09 03:30:42;;;;;;;4.07;1.40;;;;;;;-148.88;91.08;74875.47;5013822;28;20026;-76
2022/09/09 03:33:08;;;;;;;2.55;1.08;;;;;;;-148.88;91.32;74877.50;5013273;28;20069;-76
2022/09/09 03:35:33;;;;;;;4.68;1.40;;;;;;;-148.88;91.82;74887.66;5013299;28;20033;-75
2022/09/09 03:37:59;;;;;;;4.80;1.58;;;;;;;-148.88;91.92;74881.56;5013420;28;20030;-76
2022/09/09 03:40:24;;;;;;;4.78;1.50;;;;;;;-148.88;92.21;74891.72;5013518;28;20024;-76
2022/09/09 03:42:49;;;;;;;3.60;1.60;;;;;;;-148.88;92.31;74887.66;5013352;28;20056;-75
2022/09/09 03:45:14;;;;;;;3.75;1.60;;;;;;;-148.88;92.37;74887.66;5013126;28;20026;-76
2022/09/09 03:47:40;;;;;;;3.60;1.50;;;;;;;-148.88;92.55;74877.50;5013170;28;20030;-76
2022/09/09 03:50:10;;;;;;;3.13;1.40;;;;;;;-148.88;92.60;74881.56;5012911;28;20088;-76
2022/09/09 03:52:40;;;;;;;2.83;1.35;;;;;;;-148.88;92.85;74885.63;5012850;28;20514;-76
2022/09/09 03:55:06;;;;;;;4.68;1.48;;;;;;;-148.88;92.90;74889.69;5012823;28;20120;-76
2022/09/09 03:57:34;;;;;;;5.13;1.90;;;;;;;-148.88;92.88;74889.69;5012775;28;20540;-76
2022/09/09 04:00:00;;;;;;;4.35;1.73;;;;;;;-148.88;93.21;74885.63;5012759;28;20052;-76
2022/09/09 04:02:26;;;;;;;3.47;1.60;;;;;;;-148.88;93.31;74885.63;5011300;28;20018;-76
2022/09/09 04:04:51;;;;;;;4.32;1.58;;;;;;;-148.88;93.53;74875.47;5011171;28;20199;-76
2022/09/09 04:07:16;;;;;;;4.88;1.63;;;;;;;-148.88;92.98;74875.47;5011461;28;20026;-77
2022/09/09 04:09:42;;;;;;;5.28;1.60;;;;;;;-148.88;92.94;74867.34;5012788;28;20033;-77
2022/09/09 04:12:07;;;;;;;4.20;1.83;;;;;;;-148.88;93.48;74883.59;5011894;28;20079;-77
2022/09/09 04:14:32;;;;;;;5.78;2.00;;;;;;;-148.88;93.46;74879.53;5012510;28;20036;-77
2022/09/09 04:16:59;;;;;;;3.03;2.05;;;;;;;-148.88;93.75;74885.63;5012641;28;20018;-76
2022/09/09 04:19:24;;;;;;;3.63;1.70;;;;;;;-148.88;93.46;74879.53;5011175;28;20433;-76
2022/09/09 04:21:51;;;;;;;5.60;1.80;;;;;;;-148.88;93.70;74883.59;5013550;28;20045;-76
2022/09/09 04:24:17;;;;;;;5.07;1.95;;;;;;;-148.88;93.83;74887.66;5012830;28;20034;-76
2022/09/09 04:26:43;;;;;;;4.80;1.90;;;;;;;-148.88;94.13;74891.72;5012364;28;20104;-76
2022/09/09 04:29:08;;;;;;;5.85;2.30;;;;;;;-148.88;93.82;74885.63;5012467;28;20029;-76
2022/09/09 04:31:33;;;;;;;5.00;2.03;;;;;;;-148.88;94.02;74881.56;5012557;28;20365;-77
2022/09/09 04:34:04;;;;;;;6.65;1.80;;;;;;;-148.88;94.52;74879.53;5012610;28;20036;-76
2022/09/09 04:36:31;;;;;;;5.35;1.83;;;;;;;-148.88;94.41;74889.69;5012609;28;20076;-77
2022/09/09 04:38:56;;;;;;;7.55;2.03;;;;;;;-148.88;94.58;74883.59;5012769;28;20026;-77
2022/09/09 04:41:22;;;;;;;3.92;1.80;;;;;;;-148.88;94.59;74881.56;5012515;28;20026;-77
2022/09/09 04:43:47;;;;;;;4.82;1.77;;;;;;;-148.88;94.27;74879.53;5012659;28;20030;-75
2022/09/09 04:46:12;;;;;;;4.15;1.70;;;;;;;-148.88;94.60;74875.47;5012599;28;20022;-76
2022/09/09 04:48:38;;;;;;;4.00;1.90;;;;;;;-148.88;94.25;74871.41;5012681;28;20165;-76
2022/09/09 04:51:09;;;;;;;4.90;1.90;;;;;;;-148.88;94.05;74879.53;5012388;28;20053;-76
2022/09/09 04:53:34;;;;;;;6.88;1.80;;;;;;;-148.88;94.03;74873.44;5012507;28;20022;-76
2022/09/09 04:56:05;;;;;;;2.70;1.30;;;;;;;-148.88;94.04;74879.53;5012439;28;20484;-77
2022/09/09 04:58:31;;;;;;;4.25;1.90;;;;;;;-148.88;94.33;74877.50;5012768;28;20111;-76
2022/09/09 05:01:08;;;;;;;3.60;1.73;;;;;;;-148.88;94.26;74871.41;5012454;28;20033;-76
2022/09/09 05:03:34;;;;;;;3.92;1.80;;;;;;;-148.88;93.87;74871.41;5012599;28;20030;-76
2022/09/09 05:06:08;;;;;;;4.78;1.80;;;;;;;-148.88;93.92;74871.41;5010889;28;20022;-76
2022/09/09 05:08:34;;;;;;;7.22;2.20;;;;;;;-148.88;94.29;74871.41;5010772;28;20030;-76
2022/09/09 05:10:59;;;;;;;4.85;1.88;;;;;;;-148.88;94.09;74877.50;5012230;28;20029;-76
2022/09/09 05:13:26;;;;;;;4.03;1.67;;;;;;;-148.88;93.79;74863.28;5012239;28;20029;-77
2022/09/09 05:15:52;;;;;;;7.45;2.38;;;;;;;-148.88;93.93;74867.34;5012332;28;20499;-77
2022/09/09 05:18:18;;;;;;;3.70;1.80;;;;;;;-148.88;93.90;74871.41;5014734;28;20036;-78
2022/09/09 05:20:43;;;;;;;5.38;1.80;;;;;;;-148.88;93.89;74873.44;5015165;28;20029;-77
2022/09/09 05:23:10;;;;;;;7.55;2.10;;;;;;;-148.88;93.77;74867.34;5016386;28;20021;-78
2022/09/09 05:25:35;;;;;;;6.10;1.85;;;;;;;-148.88;93.75;74867.34;5017744;28;20025;-78
2022/09/09 05:28:00;;;;;;;3.80;1.70;;;;;;;-148.88;93.72;74867.34;5015999;28;20017;-78
2022/09/09 05:30:26;;;;;;;4.72;1.75;;;;;;;-148.88;93.93;74865.31;5016013;28;20026;-78
2022/09/09 05:32:51;;;;;;;5.18;2.20;;;;;;;-148.88;93.60;74859.22;5016723;28;20033;-77
2022/09/09 05:35:18;;;;;;;4.20;1.80;;;;;;;-148.88;93.76;74859.22;5018895;28;20033;-77
2022/09/09 05:37:45;;;;;;;4.07;1.60;;;;;;;-148.88;93.77;74853.13;5017898;28;20484;-78
2022/09/09 05:40:12;;;;;;;6.82;1.65;;;;;;;-148.88;93.75;74851.09;5018341;28;20400;-78
2022/09/09 05:42:38;;;;;;;5.28;1.90;;;;;;;-148.88;93.76;74849.06;5017431;28;20022;-78
2022/09/09 05:45:04;;;;;;;3.85;1.85;;;;;;;-148.88;93.53;74851.09;5016097;28;20022;-77
2022/09/09 05:47:30;;;;;;;5.25;2.00;;;;;;;-148.88;93.43;74847.03;5017467;28;20311;-77
2022/09/09 05:49:55;;;;;;;2.95;1.48;;;;;;;-148.88;93.61;74840.94;5016040;28;20049;-76
2022/09/09 05:52:20;;;;;;;4.20;1.60;;;;;;;-148.88;93.74;74838.91;5017035;28;20341;-78
2022/09/09 05:54:46;;;;;;;5.82;2.00;;;;;;;-148.88;93.43;74828.75;5016690;28;20400;-78
2022/09/09 05:57:11;;;;;;;5.90;1.95;;;;;;;-148.88;93.59;74830.78;5017009;28;20030;-78
2022/09/09 05:59:37;;;;;;;4.05;1.88;;;;;;;-148.88;93.82;74824.69;5017144;28;20475;-77
2022/09/09 06:02:02;;;;;;;7.80;2.08;;;;;;;-148.88;93.32;74810.50;5015490;28;20032;-77
2022/09/09 06:08:20;;;;;;;5.85;2.28;;;;;;;-148.88;92.98;74806.44;5030653;28;20104;-88
2022/09/09 06:11:20;;;;;;;4.25;2.10;;;;;;;-148.88;92.66;74814.53;5034624;28;20108;-88
2022/09/09 06:14:04;;;;;;;6.95;2.20;;;;;;;-148.88;92.87;74802.38;5034567;28;20061;-89
2022/09/09 06:16:32;;;;;;;5.07;2.10;;;;;;;-148.88;92.70;74792.22;5057691;22;20022;-84
2022/09/09 06:18:58;;;;;;;5.68;1.90;;;;;;;-148.88;93.15;74780.03;5035118;28;20038;-84
2022/09/09 06:21:26;;;;;;;4.07;1.70;;;;;;;-148.88;92.89;74771.91;5033932;28;20120;-85
2022/09/09 06:23:52;;;;;;;4.47;2.10;;;;;;;-148.88;93.21;74761.75;5035425;28;20430;-85
2022/09/09 06:26:22;;;;;;;4.85;1.95;;;;;;;-148.88;93.29;74755.66;5035051;28;20027;-85
2022/09/09 06:28:49;;;;;;;7.28;1.98;;;;;;;-148.88;93.32;74761.75;5033759;28;20108;-85
2022/09/09 06:31:17;;;;;;;7.18;1.98;;;;;;;-148.88;92.45;74763.78;5033827;28;20510;-84
2022/09/09 06:33:44;;;;;;;3.40;2.03;;;;;;;-148.88;92.26;74749.56;5034088;28;20075;-84
2022/09/09 06:36:14;;;;;;;4.13;1.65;;;;;;;-148.88;92.17;74755.66;5033715;28;20075;-84
2022/09/09 06:38:40;;;;;;;7.57;2.05;;;;;;;-148.88;92.20;74751.59;5034649;28;20025;-84
2022/09/09 06:41:06;;;;;;;6.88;1.75;;;;;;;-148.88;92.24;74737.38;5035114;28;20400;-84
2022/09/09 06:43:31;;;;;;;7.43;2.20;;;;;;;-148.88;92.31;74735.34;5034858;28;20056;-84
2022/09/09 06:46:21;;;;;;;5.50;1.92;;;;;;;-148.88;92.30;74713.00;5033787;28;20029;-84
2022/09/09 06:48:47;;;;;;;6.18;1.80;;;;;;;-148.88;90.64;74725.19;5031006;28;20033;-85
2022/09/09 06:51:21;;;;;;;3.45;1.60;;;;;;;-148.88;90.97;74708.94;5033409;28;20033;-84
2022/09/09 06:53:49;;;;;;;4.65;1.90;;;;;;;-148.88;90.46;74698.78;5033642;28;20029;-85
2022/09/09 06:56:22;;;;;;;6.40;1.83;;;;;;;-148.88;89.65;74692.72;5033241;28;20095;-84
2022/09/09 06:58:49;;;;;;;6.47;1.60;;;;;;;-148.88;89.47;74690.69;5033515;28;20029;-84
2022/09/09 07:01:18;;;;;;;5.05;1.80;;;;;;;-148.88;89.53;74688.66;5034637;28;20083;-84
2022/09/09 07:03:50;;;;;;;4.38;1.83;;;;;;;-148.88;89.15;74680.53;5034641;28;20021;-85
2022/09/09 07:06:23;;;;;;;8.15;2.00;;;;;;;-148.88;89.03;74680.53;5033187;28;20399;-84
2022/09/09 07:08:56;;;;;;;;;;;;;;;-148.88;88.10;74686.63;5034759;28;20083;-84
2022/09/09 07:11:28;;;;;;;5.95;2.00;;;;;;;-148.88;88.61;74688.66;5033050;28;19957;-85
2022/09/09 07:13:56;;;;;;;5.55;1.73;;;;;;;-148.88;88.43;74696.78;5034184;28;20028;-84
2022/09/09 07:16:25;;;;;;;4.68;1.73;;;;;;;-148.88;88.03;74692.72;5033201;28;20033;-84
2022/09/09 07:18:52;;;;;;;6.28;2.00;;;;;;;-148.88;88.11;74694.75;5033679;28;20072;-84
2022/09/09 07:21:18;;;;;;;5.38;1.95;;;;;;;-148.88;87.92;74696.78;5032987;28;20025;-84
2022/09/09 07:23:44;;;;;;;5.82;1.95;;;;;;;-148.88;87.76;74694.75;5034286;28;20025;-84
2022/09/09 07:26:15;;;;;;;5.80;2.10;;;;;;;-148.88;87.90;74708.94;5032920;28;20014;-84
2022/09/09 07:28:41;;;;;;;5.53;2.17;;;;;;;-148.88;88.82;74700.84;5033009;28;20029;-84
2022/09/09 07:31:13;;;;;;;6.60;1.85;;;;;;;-148.88;88.26;74686.63;5033492;28;20116;-84
2022/09/09 07:33:38;;;;;;;6.20;2.13;;;;;;;-148.88;87.65;74692.72;5034377;28;20026;-82
2022/09/09 07:36:08;;;;;;;6.13;2.38;;;;;;;-148.88;87.45;74688.66;5033277;28;20017;-84
2022/09/09 07:38:48;;;;;;;7.43;2.45;;;;;;;-148.88;87.67;74690.69;5034644;28;20041;-83
2022/09/09 07:41:20;;;;;;;7.18;2.20;;;;;;;-148.88;88.65;74676.47;5034215;28;20436;-83
2022/09/09 07:43:48;;;;;;;6.43;2.22;;;;;;;-148.88;87.14;74672.41;5034627;28;20040;-83
2022/09/09 07:46:16;;;;;;;6.57;2.03;;;;;;;-148.88;87.82;74652.09;5032397;28;20546;-85
2022/09/09 07:48:51;;;;;;;7.30;2.00;;;;;;;-148.88;86.88;74619.59;5032930;28;20400;-85
2022/09/09 07:51:21;;;;;;;5.90;1.90;;;;;;;-148.88;86.10;74623.66;5033124;28;20041;-85
2022/09/09 07:53:46;;;;;;;5.10;1.77;;;;;;;-148.88;86.21;74627.72;5033676;28;20025;-84
2022/09/09 07:56:16;;;;;;;4.68;1.88;;;;;;;-148.88;85.42;74615.53;5033607;28;20017;-85
2022/09/09 07:58:44;;;;;;;4.65;2.03;;;;;;;-148.88;85.49;74607.41;5033778;28;20033;-84
2022/09/09 08:01:12;;;;;;;7.13;2.22;;;;;;;-148.88;85.77;74603.34;5033919;28;20108;-85
2022/09/09 08:03:38;;;;;;;6.20;2.03;;;;;;;-148.88;84.81;74613.50;5032327;28;20396;-85
2022/09/09 08:06:06;;;;;;;5.20;2.15;;;;;;;-148.88;83.99;74603.34;5033622;28;20029;-84
2022/09/09 08:08:32;;;;;;;5.22;1.80;;;;;;;-148.88;83.16;74603.34;5033598;28;20025;-84
2022/09/09 08:11:16;;;;;;;5.57;1.67;;;;;;;-148.88;83.36;74603.34;5032796;28;20396;-84
2022/09/09 08:13:43;;;;;;;9.02;2.33;;;;;;;-148.88;84.19;74589.16;5033478;28;20021;-84
2022/09/09 08:16:16;;;;;;;8.15;1.98;;;;;;;-148.88;82.86;74576.97;5033460;28;20017;-85
2022/09/09 08:18:42;;;;;;;;;;;;;;;-148.88;82.15;74583.06;5032726;28;20127;-84
2022/09/09 08:21:17;;;;;;;5.30;1.90;;;;;;;-148.88;83.53;74572.91;5033533;28;20391;-83
2022/09/09 08:23:45;;;;;;;3.95;1.65;;;;;;;-148.88;83.43;74562.75;5033638;28;20483;-84
2022/09/09 08:26:38;;;;;;;5.30;1.85;;;;;;;-148.88;83.80;74542.44;5034130;28;20017;-85
2022/09/09 08:29:06;;;;;;;6.88;1.52;;;;;;;-148.88;82.25;74542.44;5031960;28;20037;-85
2022/09/09 08:31:40;;;;;;;6.90;2.00;;;;;;;-148.88;80.57;74542.44;5032225;28;20025;-83
2022/09/09 08:34:07;;;;;;;7.13;1.90;;;;;;;-148.88;81.50;74538.38;5034207;28;20554;-84
2022/09/09 08:36:38;;;;;;;6.03;1.70;;;;;;;-148.88;80.45;74530.25;5033792;28;20067;-82
2022/09/09 08:39:06;;;;;;;7.63;2.13;;;;;;;-148.88;81.19;74520.09;5033123;28;20436;-85
2022/09/09 08:41:49;;;;;;;5.78;1.70;;;;;;;-148.88;80.96;74509.94;5032671;28;20503;-83
2022/09/09 08:44:36;;;;;;;4.93;1.73;;;;;;;-148.88;80.89;74489.66;5033332;28;20036;-85
2022/09/09 08:47:23;;;;;;;5.38;1.83;;;;;;;-148.88;80.29;74481.53;5034257;28;20025;-84
2022/09/09 08:50:38;;;;;;;5.57;2.00;;;;;;;-148.88;79.78;74469.34;5034185;28;20037;-85
2022/09/09 08:53:22;;;;;;;5.53;1.63;;;;;;;-148.88;79.51;74453.09;5021634;28;20030;-84
2022/09/09 08:55:51;;;;;;;6.55;1.88;;;;;;;-148.88;77.04;74440.91;5032321;28;20026;-85
2022/09/09 08:58:38;;;;;;;5.20;1.90;;;;;;;-148.88;76.00;74408.44;5035147;28;20025;-86
2022/09/09 09:01:09;;;;;;;6.78;1.95;;;;;;;-148.88;76.68;74392.19;5037618;28;20113;-85
2022/09/09 09:03:53;;;;;;;5.18;1.73;;;;;;;-148.88;76.57;74380.00;5037279;28;20037;-85
2022/09/09 09:06:30;;;;;;;;;;;;;;;-148.88;74.44;74367.81;5036538;28;20017;-87
2022/09/09 09:09:08;;;;;;;8.00;1.85;;;;;;;-148.88;73.65;74396.25;5036311;28;19960;-86
2022/09/09 09:11:43;;;;;;;11.45;4.70;;;;;;;-148.88;74.06;74382.03;5038021;28;20026;-83
2022/09/09 09:14:16;;;;;;;6.22;1.65;;;;;;;-148.88;73.58;74412.47;5038023;28;20075;-82
2022/09/09 09:16:50;;;;;;;5.10;1.92;;;;;;;-148.88;73.65;74420.59;5038327;28;20033;-85
2022/09/09 09:19:17;;;;;;;5.82;1.42;;;;;;;-148.88;74.72;74440.91;5036926;28;20119;-85
2022/09/09 09:22:11;;;;;;;6.80;1.77;;;;;;;-148.88;74.85;74449.03;5037252;28;20029;-83
2022/09/09 09:24:36;;;;;;;;;;;;;;;-148.88;75.38;74449.03;5037271;28;20029;-84
2022/09/09 09:27:12;;;;;;;5.15;1.55;;;;;;;-148.88;74.43;74469.34;5039632;28;19915;-83
2022/09/09 09:29:40;;;;;;;8.05;1.67;;;;;;;-148.88;74.75;74477.47;5038501;28;20060;-84
2022/09/09 09:32:09;;;;;;;10.05;1.63;;;;;;;-148.88;74.44;74477.47;5039780;28;20109;-84
2022/09/09 09:34:35;;;;;;;5.88;1.60;;;;;;;-148.88;74.61;74438.88;5040831;28;20022;-84
2022/09/09 09:37:04;;;;;;;6.00;1.63;;;;;;;-148.88;75.14;74451.06;5038804;28;20172;-84
2022/09/09 09:39:38;;;;;;;4.53;1.65;;;;;;;-148.88;74.98;74447.00;5039497;28;20380;-84
2022/09/09 09:42:13;;;;;;;5.70;1.58;;;;;;;-148.88;75.07;74432.78;5040021;28;20021;-83
2022/09/09 09:44:40;;;;;;;6.90;1.73;;;;;;;-148.88;73.52;74469.34;5038677;28;20472;-82
2022/09/09 09:47:13;;;;;;;6.32;1.95;;;;;;;-148.88;74.11;74473.41;5037619;28;20610;-82
2022/09/09 09:49:39;;;;;;;8.23;1.85;;;;;;;-148.88;76.26;74501.81;5037649;28;20048;-84
2022/09/09 09:52:06;;;;;;;8.75;1.92;;;;;;;-148.88;76.74;74514.00;5037586;28;20033;-84
2022/09/09 09:54:37;;;;;;;6.20;1.75;;;;;;;-148.88;79.71;74497.78;5039040;28;20028;-83
2022/09/09 09:57:14;;;;;;;4.07;1.50;;;;;;;-148.88;76.28;74438.88;5037168;28;20041;-85
2022/09/09 09:59:40;;;;;;;4.53;1.60;;;;;;;-148.88;77.90;74365.78;5037046;28;20025;-84
2022/09/09 10:02:15;;;;;;;3.40;1.35;;;;;;;-148.88;71.65;74282.53;5036585;28;20021;-84
2022/09/09 10:04:41;;;;;;;4.25;1.33;;;;;;;-148.88;72.31;74227.72;5037637;28;20057;-84
2022/09/09 10:07:17;;;;;;;4.43;1.33;;;;;;;-148.88;67.89;74168.84;5036984;28;20026;-83
2022/09/09 10:09:42;;;;;;;3.63;1.20;;;;;;;-148.88;68.58;74146.50;5036554;28;20039;-83
2022/09/09 10:12:33;;;;;;;3.63;1.30;;;;;;;-148.88;65.18;74118.06;5037174;28;20025;-83
2022/09/09 10:15:05;;;;;;;5.32;1.00;;;;;;;-148.88;64.13;74158.69;5035857;28;20108;-84
2022/09/09 10:17:50;;;;;;;4.72;1.40;;;;;;;-148.88;63.00;74248.00;5036681;28;20033;-83
2022/09/09 10:20:37;;;;;;;6.53;1.60;;;;;;;-148.88;64.36;74302.84;5036176;28;20079;-83
2022/09/09 10:23:21;;;;;;;7.22;1.58;;;;;;;-148.88;65.01;74225.69;5035542;28;20029;-84
2022/09/09 10:25:56;;;;;;;;;;;;;;;-148.88;63.61;74209.44;5034883;28;20026;-83
2022/09/09 10:28:47;;;;;;;3.90;1.20;;;;;;;-148.88;62.80;74197.25;5036334;28;19912;-83
2022/09/09 10:31:31;;;;;;;3.78;1.17;;;;;;;-148.88;64.88;74201.31;5035014;28;20057;-83
2022/09/09 10:34:41;;;;;;;6.60;1.42;;;;;;;-148.88;61.45;74148.53;5036010;28;20031;-85
2022/09/09 10:37:54;;;;;;;4.25;1.40;;;;;;;-148.88;61.97;74128.22;5034111;28;20608;-84
2022/09/09 10:40:42;;;;;;;4.85;1.83;;;;;;;-148.88;60.54;74107.91;4997488;28;20057;-84
2022/09/09 10:43:20;;;;;;;4.28;1.38;;;;;;;-148.88;58.67;74073.41;4998118;28;20062;-84
2022/09/09 10:46:09;;;;;;;5.50;1.17;;;;;;;-148.88;55.54;74051.06;5030194;28;20044;-84
2022/09/09 10:48:52;;;;;;;8.23;1.73;;;;;;;-148.88;55.34;74051.06;5041666;28;20537;-83
2022/09/09 10:51:28;;;;;;;4.68;1.20;;;;;;;-148.88;54.80;74053.09;5052806;28;20029;-83
2022/09/09 10:54:41;;;;;;;4.60;1.30;;;;;;;-148.88;55.01;74014.53;5053994;28;20080;-85
2022/09/09 10:57:31;;;;;;;4.90;1.27;;;;;;;-148.88;54.38;73965.78;5031171;28;20037;-84
2022/09/09 11:00:04;;;;;;;7.55;1.58;;;;;;;-148.88;54.81;74002.34;5036028;28;20032;-85
2022/09/09 11:02:31;;;;;;;5.28;1.40;;;;;;;-148.88;55.11;73994.22;5035830;28;20028;-85
2022/09/09 11:05:14;;;;;;;4.95;1.20;;;;;;;-148.88;53.67;73945.50;5035178;28;20096;-84
2022/09/09 11:08:02;;;;;;;5.10;1.10;;;;;;;-148.88;53.72;74079.50;5036371;28;20052;-84
2022/09/09 11:10:39;;;;;;;3.95;1.10;;;;;;;-148.88;56.42;74195.22;5039331;28;20159;-83
2022/09/09 11:13:15;;;;;;;3.75;1.30;;;;;;;-148.88;56.84;74099.78;5039209;28;20071;-84
2022/09/09 11:15:45;;;;;;;5.53;1.00;;;;;;;-148.88;54.84;74081.53;5038582;28;20021;-85
2022/09/09 11:18:19;;;;;;;5.68;1.10;;;;;;;-148.88;54.31;74032.78;5036111;28;20025;-83
2022/09/09 11:20:48;;;;;;;3.67;1.10;;;;;;;-148.88;53.24;73994.22;5038340;28;20038;-84
2022/09/09 11:23:20;;;;;;;4.93;1.10;;;;;;;-148.88;54.17;73941.44;5037587;28;20021;-84
2022/09/09 11:25:55;;;;;;;6.50;1.00;;;;;;;-148.88;52.43;73894.75;5037249;28;20530;-84
2022/09/09 11:28:34;;;;;;;4.82;0.95;;;;;;;-148.88;52.38;73906.91;5037376;28;20025;-85
2022/09/09 11:31:33;;;;;;;4.68;1.05;;;;;;;-148.88;50.36;73878.50;5035320;28;20025;-84
2022/09/09 11:34:18;;;;;;;4.43;1.30;;;;;;;-148.88;50.74;73890.69;5037146;28;20021;-84
2022/09/09 11:36:58;;;;;;;5.05;1.27;;;;;;;-148.88;51.42;73990.16;5036359;28;20013;-84
2022/09/09 11:39:39;;;;;;;5.55;1.13;;;;;;;-148.88;50.77;73996.25;5038274;28;20036;-84
2022/09/09 11:42:13;;;;;;;4.28;1.10;;;;;;;-148.88;51.73;73945.50;5037611;28;20029;-84
2022/09/09 11:44:39;;;;;;;5.82;1.20;;;;;;;-148.88;51.08;73937.38;5036643;28;20048;-83
2022/09/09 11:47:20;;;;;;;6.30;1.40;;;;;;;-148.88;51.04;73935.34;5035434;28;20017;-85
2022/09/09 11:49:45;;;;;;;5.75;1.20;;;;;;;-148.88;50.52;73888.66;5033890;28;20026;-85